Time;durP1;ratioP1;P1;durP2;ratioP2;P2;SDS_P1;SDS_P2;PMS_P1;PMS_P2;Temp;Humidity;BMP_temperature;BMP_pressure;BME280_temperature;BME280_humidity;BME280_pressure;Samples;Min_cycle;Max_cycle;Signal;HPM_P1;HPM_P2
2021/05/29 00:02:45;;;;;;;2.60;2.40;;;15.50;34.20;;;;;;10380301;28;20304;-71
2021/05/29 00:07:49;;;;;;;3.10;2.80;;;15.40;34.50;;;;;;10384868;28;20776;-71
2021/05/29 00:12:52;;;;;;;2.80;2.57;;;15.40;34.50;;;;;;10379625;28;20217;-71
2021/05/29 00:17:56;;;;;;;3.00;2.70;;;15.50;34.60;;;;;;10379285;28;20231;-71
2021/05/29 00:22:59;;;;;;;3.60;2.60;;;15.50;34.90;;;;;;10380241;28;20799;-71
2021/05/29 00:28:02;;;;;;;2.77;2.63;;;15.50;34.60;;;;;;10382264;28;20595;-71
2021/05/29 00:33:06;;;;;;;2.93;2.73;;;15.60;34.80;;;;;;10379479;28;20230;-71
2021/05/29 00:38:09;;;;;;;2.67;2.47;;;15.50;34.90;;;;;;10379769;28;20233;-71
2021/05/29 00:43:12;;;;;;;2.87;2.63;;;15.40;34.60;;;;;;10382464;28;20230;-71
2021/05/29 00:48:16;;;;;;;2.80;2.57;;;15.40;34.80;;;;;;10382657;28;20232;-70
2021/05/29 00:53:19;;;;;;;2.53;2.33;;;15.30;35.40;;;;;;10377199;28;20222;-71
2021/05/29 00:58:22;;;;;;;2.97;2.77;;;15.30;35.30;;;;;;10380216;28;20748;-71
2021/05/29 01:03:27;;;;;;;2.97;2.77;;;15.30;35.30;;;;;;10373876;28;20277;-71
2021/05/29 01:08:31;;;;;;;2.90;2.70;;;15.30;35.70;;;;;;10380777;28;20234;-71
2021/05/29 01:13:35;;;;;;;3.10;2.83;;;15.30;35.30;;;;;;10383949;28;20229;-71
2021/05/29 01:18:38;;;;;;;3.07;2.87;;;15.20;35.30;;;;;;10379803;28;20963;-70
2021/05/29 01:23:42;;;;;;;2.10;2.00;;;15.10;35.60;;;;;;10380300;28;20225;-71
2021/05/29 01:28:45;;;;;;;2.70;2.50;;;15.10;35.70;;;;;;10380051;28;20225;-71
2021/05/29 01:33:54;;;;;;;2.27;2.07;;;15.10;35.70;;;;;;10381129;28;20678;-71
2021/05/29 01:38:58;;;;;;;2.40;2.20;;;15.00;35.60;;;;;;10380676;28;20304;-70
2021/05/29 01:44:02;;;;;;;4.17;2.40;;;15.10;36.00;;;;;;10380796;28;20236;-71
2021/05/29 01:49:04;;;;;;;1.97;1.83;;;15.10;35.70;;;;;;10387201;28;20237;-70
2021/05/29 01:54:08;;;;;;;2.10;1.90;;;15.10;35.60;;;;;;10386704;28;20235;-71
2021/05/29 01:59:10;;;;;;;2.00;1.90;;;15.10;35.80;;;;;;10385389;28;20329;-71
2021/05/29 02:04:13;;;;;;;1.93;1.83;;;15.00;35.70;;;;;;10385092;28;20234;-71
2021/05/29 02:09:17;;;;;;;3.23;2.07;;;15.10;35.80;;;;;;10388137;28;20597;-71
2021/05/29 02:14:20;;;;;;;2.50;2.30;;;15.10;36.10;;;;;;10389640;28;20814;-71
2021/05/29 02:19:22;;;;;;;2.33;2.00;;;15.10;35.90;;;;;;10389922;28;20234;-71
2021/05/29 02:24:26;;;;;;;4.30;2.43;;;15.00;35.60;;;;;;10388482;28;20234;-71
2021/05/29 02:29:29;;;;;;;2.27;2.17;;;15.00;35.90;;;;;;10382472;28;20230;-71
2021/05/29 02:34:31;;;;;;;2.40;2.30;;;15.00;35.80;;;;;;10389761;28;20320;-71
2021/05/29 02:39:35;;;;;;;3.33;2.10;;;15.00;35.80;;;;;;10385845;28;20233;-71
2021/05/29 02:44:38;;;;;;;2.73;2.50;;;14.90;35.90;;;;;;10379442;28;20760;-72
2021/05/29 02:49:40;;;;;;;2.40;2.20;;;14.90;35.80;;;;;;10385863;28;20234;-71
2021/05/29 02:54:44;;;;;;;2.70;2.50;;;14.80;35.70;;;;;;10382832;28;20256;-71
2021/05/29 02:59:47;;;;;;;2.60;2.40;;;14.80;36.00;;;;;;10382127;28;20241;-71
2021/05/29 03:04:49;;;;;;;3.57;2.30;;;14.80;35.90;;;;;;10389705;28;20240;-71
2021/05/29 03:09:53;;;;;;;2.10;2.00;;;14.80;36.00;;;;;;10386160;28;20228;-71
2021/05/29 03:14:56;;;;;;;3.03;2.60;;;14.70;36.10;;;;;;10385677;28;20320;-71
2021/05/29 03:19:59;;;;;;;2.40;2.30;;;14.70;36.00;;;;;;10383541;28;20222;-71
2021/05/29 03:25:04;;;;;;;2.53;2.33;;;14.60;36.10;;;;;;10384253;28;20608;-71
2021/05/29 03:30:10;;;;;;;2.67;2.47;;;14.60;36.50;;;;;;10385457;28;20230;-71
2021/05/29 03:35:14;;;;;;;2.40;2.20;;;14.50;36.50;;;;;;10379829;28;20234;-71
2021/05/29 03:40:18;;;;;;;1.87;1.77;;;14.50;36.40;;;;;;10379939;28;20241;-71
2021/05/29 03:45:21;;;;;;;2.47;2.27;;;14.50;36.50;;;;;;10379327;28;20236;-71
2021/05/29 03:50:25;;;;;;;2.60;2.40;;;14.50;36.60;;;;;;10380835;28;20244;-71
2021/05/29 03:55:31;;;;;;;2.53;2.33;;;14.50;36.50;;;;;;10387057;28;20309;-71
2021/05/29 04:00:34;;;;;;;3.07;2.77;;;14.50;36.70;;;;;;10379983;28;20240;-71
2021/05/29 04:05:37;;;;;;;2.77;2.30;;;14.50;36.60;;;;;;10382136;28;20236;-71
2021/05/29 04:10:41;;;;;;;2.20;2.10;;;14.40;36.40;;;;;;10384214;28;20226;-71
2021/05/29 04:15:44;;;;;;;3.07;2.50;;;14.30;36.70;;;;;;10385276;28;20312;-71
2021/05/29 04:20:47;;;;;;;3.40;3.10;;;14.30;36.80;;;;;;10384210;28;20233;-71
2021/05/29 04:25:50;;;;;;;2.47;2.27;;;14.20;36.80;;;;;;10382260;28;20229;-71
2021/05/29 04:30:53;;;;;;;2.97;2.77;;;14.20;37.20;;;;;;10375714;28;20222;-71
2021/05/29 04:35:55;;;;;;;4.10;3.80;;;14.20;37.20;;;;;;10379615;28;20239;-71
2021/05/29 04:40:59;;;;;;;3.50;3.20;;;14.10;37.50;;;;;;10377376;28;20243;-70
2021/05/29 04:46:02;;;;;;;3.83;3.07;;;14.10;37.80;;;;;;10356835;28;20236;-70
2021/05/29 04:51:15;;;;;;;3.80;3.50;;;14.10;37.70;;;;;;10357174;28;20884;-71
2021/05/29 04:56:18;;;;;;;3.43;3.23;;;14.10;38.00;;;;;;10362133;28;20257;-71
2021/05/29 05:01:23;;;;;;;3.67;3.43;;;14.20;38.50;;;;;;10376928;28;20606;-71
2021/05/29 05:06:27;;;;;;;3.33;3.13;;;14.20;38.30;;;;;;10385164;28;20274;-71
2021/05/29 05:11:31;;;;;;;2.90;2.70;;;14.40;38.20;;;;;;10390517;28;20249;-71
2021/05/29 05:16:34;;;;;;;3.43;3.13;;;14.50;38.30;;;;;;10380373;28;20648;-71
2021/05/29 05:21:37;;;;;;;3.27;2.87;;;14.70;38.30;;;;;;10381431;28;20238;-71
2021/05/29 05:26:41;;;;;;;3.17;2.27;;;14.80;37.80;;;;;;10387815;28;20707;-71
2021/05/29 05:31:44;;;;;;;2.63;2.43;;;15.00;37.70;;;;;;10389104;28;20228;-71
2021/05/29 05:36:47;;;;;;;2.47;2.27;;;15.10;37.40;;;;;;10387529;28;20230;-70
2021/05/29 05:41:51;;;;;;;2.80;2.60;;;15.20;37.30;;;;;;10383899;28;20314;-71
2021/05/29 05:46:54;;;;;;;2.27;2.17;;;15.30;37.30;;;;;;10388253;28;20225;-70
2021/05/29 05:51:57;;;;;;;2.67;2.47;;;15.50;37.20;;;;;;10377233;28;20237;-72
2021/05/29 05:57:00;;;;;;;3.20;2.57;;;15.50;37.20;;;;;;10384866;28;20750;-71
2021/05/29 06:02:03;;;;;;;2.70;2.50;;;15.60;37.30;;;;;;10384485;28;20230;-71
2021/05/29 06:07:06;;;;;;;2.70;2.50;;;15.70;37.00;;;;;;10386110;28;20234;-71
2021/05/29 06:12:11;;;;;;;2.20;2.10;;;15.80;36.70;;;;;;10388824;28;20267;-71
2021/05/29 06:22:35;;;;;;;2.40;2.20;;;16.00;36.80;;;;;;10383115;28;20244;-71
2021/05/29 06:27:39;;;;;;;2.63;2.43;;;16.10;36.90;;;;;;10386820;28;20572;-71
2021/05/29 06:32:42;;;;;;;2.40;2.27;;;16.20;37.10;;;;;;10383006;28;20586;-71
2021/05/29 06:37:45;;;;;;;2.50;2.30;;;16.30;36.80;;;;;;10389601;28;20229;-71
2021/05/29 06:42:49;;;;;;;2.10;1.90;;;16.40;36.80;;;;;;10388783;28;20778;-71
2021/05/29 06:47:51;;;;;;;2.80;2.57;;;16.60;36.60;;;;;;10381260;28;20230;-71
2021/05/29 06:52:57;;;;;;;2.37;2.27;;;16.70;36.50;;;;;;10383172;28;20230;-71
2021/05/29 07:03:22;;;;;;;2.70;2.50;;;16.90;35.90;;;;;;10387005;28;20240;-71
2021/05/29 07:08:25;;;;;;;2.60;2.40;;;17.00;36.30;;;;;;10380577;28;20288;-70
2021/05/29 07:13:28;;;;;;;2.63;2.17;;;17.10;36.30;;;;;;10381323;28;20233;-71
2021/05/29 07:18:33;;;;;;;2.50;2.30;;;17.20;35.90;;;;;;10381358;28;20231;-71
2021/05/29 07:23:36;;;;;;;2.70;2.50;;;17.40;35.70;;;;;;10383408;28;20233;-71
2021/05/29 07:28:40;;;;;;;2.23;2.13;;;17.60;35.60;;;;;;10386873;28;20982;-71
2021/05/29 07:33:43;;;;;;;2.00;1.90;;;17.80;35.90;;;;;;10394244;28;20224;-71
2021/05/29 07:38:45;;;;;;;2.50;2.30;;;18.10;36.20;;;;;;10386716;28;20223;-71
2021/05/29 07:43:49;;;;;;;2.00;1.90;;;18.30;36.30;;;;;;10366770;28;20231;-71
2021/05/29 07:48:52;;;;;;;2.47;2.27;;;18.50;35.20;;;;;;10367659;28;20776;-71
2021/05/29 07:53:55;;;;;;;1.90;1.80;;;18.70;35.40;;;;;;10360294;28;20650;-71
2021/05/29 07:59:06;;;;;;;1.90;1.80;;;19.00;35.50;;;;;;10361417;28;20226;-71
2021/05/29 08:04:10;;;;;;;1.80;1.70;;;19.20;34.50;;;;;;10358600;28;20249;-71
2021/05/29 08:09:12;;;;;;;1.80;1.70;;;19.40;34.50;;;;;;10392607;28;20238;-72
2021/05/29 08:14:17;;;;;;;1.93;1.83;;;19.60;34.50;;;;;;10388018;28;20226;-72
2021/05/29 08:19:19;;;;;;;1.63;1.53;;;19.80;33.90;;;;;;10388019;28;20791;-71
2021/05/29 08:24:22;;;;;;;1.87;1.77;;;20.00;33.50;;;;;;10387721;28;20272;-71
2021/05/29 08:29:26;;;;;;;1.87;1.60;;;20.20;33.30;;;;;;10388793;28;20316;-71
2021/05/29 08:34:29;;;;;;;1.50;1.40;;;20.40;33.00;;;;;;10385144;28;20722;-71
2021/05/29 08:39:31;;;;;;;1.60;1.50;;;20.60;32.70;;;;;;10383903;28;20239;-72
2021/05/29 08:44:35;;;;;;;1.50;1.40;;;20.90;32.50;;;;;;10385343;28;20232;-71
2021/05/29 08:49:37;;;;;;;1.60;1.50;;;21.00;31.20;;;;;;10387552;28;20222;-71
2021/05/29 08:54:40;;;;;;;1.40;1.30;;;21.20;31.80;;;;;;10381533;28;20237;-72
2021/05/29 08:59:44;;;;;;;1.50;1.40;;;21.30;31.10;;;;;;10389575;28;20225;-71
2021/05/29 09:05:09;;;;;;;1.20;1.20;;;21.30;29.90;;;;;;10386215;28;20234;-72
2021/05/29 09:10:22;;;;;;;1.50;1.40;;;21.30;29.10;;;;;;10354194;28;20218;-71
2021/05/29 09:15:40;;;;;;;1.40;1.13;;;21.30;29.00;;;;;;10365070;28;20231;-71
2021/05/29 09:20:42;;;;;;;1.53;1.40;;;21.40;28.80;;;;;;10353068;28;20592;-71
2021/05/29 09:25:53;;;;;;;1.30;1.30;;;21.50;29.60;;;;;;10355797;28;20313;-71
2021/05/29 09:31:04;;;;;;;1.20;1.10;;;21.60;28.50;;;;;;10384867;28;20226;-72
2021/05/29 09:36:10;;;;;;;1.40;1.40;;;21.60;29.40;;;;;;10389595;28;20233;-72
2021/05/29 09:41:21;;;;;;;1.63;1.53;;;21.60;29.60;;;;;;10384231;28;20600;-72
2021/05/29 09:46:25;;;;;;;3.10;1.53;;;21.60;28.70;;;;;;10380583;28;20264;-71
2021/05/29 09:51:31;;;;;;;1.67;1.57;;;21.60;29.00;;;;;;10383268;28;20230;-72
2021/05/29 09:56:40;;;;;;;1.40;1.30;;;21.60;29.70;;;;;;10386750;28;20226;-71
2021/05/29 10:01:47;;;;;;;1.50;1.40;;;21.70;27.70;;;;;;10386572;28;20236;-71
2021/05/29 10:06:58;;;;;;;1.27;1.10;;;21.70;27.50;;;;;;10387470;28;20234;-71
2021/05/29 10:12:02;;;;;;;1.20;1.10;;;21.60;27.10;;;;;;10380679;28;20217;-71
2021/05/29 10:17:07;;;;;;;1.13;1.10;;;21.60;28.50;;;;;;10394180;28;20593;-71
2021/05/29 10:22:11;;;;;;;0.93;0.93;;;21.70;28.60;;;;;;10396066;28;20889;-72
2021/05/29 10:27:18;;;;;;;0.90;0.90;;;21.90;28.70;;;;;;10391090;28;20238;-71
2021/05/29 10:32:22;;;;;;;0.97;0.97;;;22.10;27.50;;;;;;10394162;28;20635;-72
2021/05/29 10:37:30;;;;;;;3.20;1.20;;;22.10;27.40;;;;;;10394208;28;20284;-71
2021/05/29 10:42:33;;;;;;;0.97;0.97;;;22.10;26.70;;;;;;10394033;28;20234;-72
2021/05/29 10:48:03;;;;;;;1.00;0.90;;;22.00;27.80;;;;;;10392966;28;20614;-71
2021/05/29 10:53:06;;;;;;;1.20;1.10;;;21.90;26.60;;;;;;10383558;28;20230;-71
2021/05/29 10:58:08;;;;;;;1.30;1.20;;;21.90;27.70;;;;;;10386684;28;20236;-71
2021/05/29 11:03:29;;;;;;;1.47;1.00;;;21.90;27.70;;;;;;10391132;28;20230;-71
2021/05/29 11:08:51;;;;;;;0.90;0.90;;;21.90;26.00;;;;;;10390174;28;20339;-72
2021/05/29 11:14:04;;;;;;;2.63;1.10;;;21.90;26.60;;;;;;10386925;28;20245;-71
2021/05/29 11:19:14;;;;;;;0.87;0.83;;;21.90;25.80;;;;;;10397529;28;20268;-72
2021/05/29 11:24:18;;;;;;;0.93;0.93;;;22.00;25.60;;;;;;10391409;28;20718;-71
2021/05/29 11:29:21;;;;;;;1.70;0.80;;;22.10;26.70;;;;;;10389628;28;20691;-72
2021/05/29 11:34:40;;;;;;;0.90;0.90;;;22.20;26.80;;;;;;10392667;28;20230;-71
2021/05/29 11:39:53;;;;;;;0.93;0.93;;;22.40;25.50;;;;;;10393421;28;20233;-71
2021/05/29 11:45:13;;;;;;;1.00;1.00;;;22.50;25.10;;;;;;10384387;28;20225;-71
2021/05/29 11:50:17;;;;;;;1.00;0.90;;;22.50;24.40;;;;;;10391026;28;20658;-71
2021/05/29 11:55:21;;;;;;;1.07;0.90;;;22.50;26.40;;;;;;10390337;28;20233;-71
2021/05/29 12:00:24;;;;;;;1.30;1.20;;;22.40;26.00;;;;;;10390976;28;20230;-71
2021/05/29 12:05:38;;;;;;;1.07;0.93;;;22.20;26.00;;;;;;10376313;28;20320;-70
2021/05/29 12:10:49;;;;;;;2.43;0.90;;;22.00;25.80;;;;;;10386496;28;20252;-72
2021/05/29 12:15:58;;;;;;;0.80;0.80;;;21.80;25.50;;;;;;10383467;28;20606;-71
2021/05/29 12:21:02;;;;;;;1.00;1.00;;;21.60;25.70;;;;;;10387212;28;20230;-71
2021/05/29 12:26:05;;;;;;;1.10;1.00;;;21.50;26.30;;;;;;10386709;28;20253;-71
2021/05/29 12:31:08;;;;;;;0.90;0.90;;;21.40;26.30;;;;;;10379652;28;20226;-73
2021/05/29 12:36:14;;;;;;;0.90;0.90;;;21.50;26.30;;;;;;10372200;28;20291;-71
2021/05/29 12:41:21;;;;;;;0.70;0.70;;;21.50;25.90;;;;;;10377872;28;20246;-71
2021/05/29 12:46:25;;;;;;;0.77;0.77;;;21.60;26.20;;;;;;10386540;28;20230;-71
2021/05/29 12:51:41;;;;;;;0.80;0.80;;;21.70;25.90;;;;;;10383678;28;20230;-72
2021/05/29 12:56:52;;;;;;;0.97;0.93;;;21.80;24.50;;;;;;10378976;28;20231;-71
2021/05/29 13:02:18;;;;;;;0.80;0.80;;;21.90;23.60;;;;;;10378128;28;20796;-73
2021/05/29 13:07:32;;;;;;;1.10;1.10;;;21.90;24.90;;;;;;10379984;28;20380;-71
2021/05/29 13:12:36;;;;;;;0.93;0.80;;;21.90;23.60;;;;;;10380561;28;20329;-71
2021/05/29 13:17:39;;;;;;;1.23;0.90;;;22.00;25.00;;;;;;10381719;28;20278;-72
2021/05/29 13:22:43;;;;;;;1.20;1.10;;;22.00;25.10;;;;;;10381203;28;20876;-72
2021/05/29 13:27:50;;;;;;;1.00;1.00;;;22.00;25.30;;;;;;10386617;28;20788;-71
2021/05/29 13:33:01;;;;;;;0.93;0.90;;;22.00;25.50;;;;;;10397288;23;20231;-74
2021/05/29 13:38:06;;;;;;;0.90;0.90;;;22.00;24.90;;;;;;10430253;28;20228;-74
2021/05/29 13:43:10;;;;;;;1.27;1.10;;;21.80;25.50;;;;;;10440618;28;20236;-73
2021/05/29 13:48:16;;;;;;;0.83;0.83;;;21.80;25.70;;;;;;10431341;28;20221;-74
2021/05/29 13:53:19;;;;;;;1.00;1.00;;;21.80;25.60;;;;;;10428028;28;20582;-74
2021/05/29 13:58:22;;;;;;;0.90;0.90;;;21.80;25.50;;;;;;10423199;28;20235;-74
2021/05/29 14:03:25;;;;;;;1.10;1.00;;;21.80;25.50;;;;;;10424639;28;20251;-73
2021/05/29 14:08:28;;;;;;;1.20;1.10;;;21.80;25.40;;;;;;10427520;28;20226;-74
2021/05/29 14:13:31;;;;;;;1.00;1.00;;;21.80;25.10;;;;;;10426609;28;20243;-74
2021/05/29 14:18:34;;;;;;;1.07;1.07;;;21.80;25.30;;;;;;10428704;28;20239;-73
2021/05/29 14:23:38;;;;;;;1.00;0.90;;;21.80;25.20;;;;;;10424491;28;20231;-74
2021/05/29 14:28:41;;;;;;;0.80;0.80;;;21.70;24.70;;;;;;10426782;28;20231;-73
2021/05/29 14:33:44;;;;;;;0.70;0.70;;;21.50;24.90;;;;;;10419468;28;20228;-73
2021/05/29 14:38:48;;;;;;;2.20;1.00;;;21.30;24.90;;;;;;10429702;28;20324;-77
2021/05/29 14:43:51;;;;;;;0.73;0.73;;;21.20;25.50;;;;;;10426489;28;20239;-74
2021/05/29 14:48:54;;;;;;;0.90;0.90;;;21.10;25.50;;;;;;10427173;28;20218;-78
2021/05/29 14:54:00;;;;;;;1.30;0.90;;;21.00;26.00;;;;;;10426104;28;20660;-78
2021/05/29 14:59:03;;;;;;;0.90;0.90;;;20.90;25.60;;;;;;10417373;28;20693;-76
2021/05/29 15:04:07;;;;;;;0.93;0.93;;;21.00;26.00;;;;;;10424853;28;20769;-77
2021/05/29 15:09:10;;;;;;;0.90;0.90;;;21.10;26.00;;;;;;10426702;28;20245;-77
2021/05/29 15:14:13;;;;;;;0.70;0.70;;;21.20;25.60;;;;;;10426150;28;20235;-77
2021/05/29 15:19:16;;;;;;;0.90;0.90;;;21.20;25.60;;;;;;10427058;28;20630;-78
2021/05/29 15:24:20;;;;;;;0.83;0.83;;;21.30;25.30;;;;;;10417980;28;20232;-78
2021/05/29 15:29:23;;;;;;;0.70;0.70;;;21.40;24.90;;;;;;10425315;28;20697;-78
2021/05/29 15:34:26;;;;;;;0.80;0.80;;;21.50;24.20;;;;;;10428103;28;20574;-78
2021/05/29 15:39:29;;;;;;;1.90;0.83;;;21.60;24.20;;;;;;10423804;28;20248;-77
2021/05/29 15:44:32;;;;;;;0.70;0.70;;;21.60;23.60;;;;;;10424794;28;20240;-77
2021/05/29 15:49:35;;;;;;;0.70;0.70;;;21.70;23.90;;;;;;10417270;28;20225;-77
2021/05/29 15:54:38;;;;;;;0.83;0.70;;;21.70;23.70;;;;;;10419479;28;20298;-76
2021/05/29 15:59:41;;;;;;;2.13;1.00;;;21.70;23.20;;;;;;10424713;28;20338;-76
2021/05/29 16:04:44;;;;;;;0.73;0.73;;;21.70;23.40;;;;;;10424078;28;20629;-76
2021/05/29 16:09:47;;;;;;;2.63;0.90;;;21.70;23.00;;;;;;10418113;28;20818;-78
2021/05/29 16:14:50;;;;;;;1.33;0.70;;;21.60;22.60;;;;;;10422146;28;20226;-77
2021/05/29 16:19:53;;;;;;;0.80;0.80;;;21.60;23.10;;;;;;10422639;28;20359;-74
2021/05/29 16:24:56;;;;;;;0.70;0.70;;;21.50;22.90;;;;;;10419410;28;20225;-76
2021/05/29 16:29:59;;;;;;;2.10;0.70;;;21.50;22.80;;;;;;10421855;28;20271;-75
2021/05/29 16:35:02;;;;;;;0.70;0.70;;;21.40;22.80;;;;;;10420080;28;20285;-74
2021/05/29 16:40:07;;;;;;;0.70;0.70;;;21.40;22.80;;;;;;10426073;28;20247;-75
2021/05/29 16:45:11;;;;;;;1.17;0.70;;;21.40;22.40;;;;;;10419026;28;20714;-75
2021/05/29 16:50:14;;;;;;;0.80;0.80;;;21.40;22.40;;;;;;10419971;28;20610;-75
2021/05/29 16:55:22;;;;;;;0.90;0.90;;;21.50;22.90;;;;;;10423965;28;20254;-75
2021/05/29 17:00:25;;;;;;;0.77;0.77;;;21.50;23.10;;;;;;10419995;28;20598;-76
2021/05/29 17:05:27;;;;;;;0.97;0.97;;;21.50;23.20;;;;;;10420653;28;20243;-75
2021/05/29 17:10:31;;;;;;;1.27;0.80;;;21.50;23.40;;;;;;10421941;28;20591;-75
2021/05/29 17:15:34;;;;;;;0.80;0.80;;;21.40;23.40;;;;;;10427037;28;20299;-77
2021/05/29 17:20:37;;;;;;;1.57;0.80;;;21.40;23.70;;;;;;10427236;28;20555;-76
2021/05/29 17:25:41;;;;;;;1.27;0.80;;;21.50;23.40;;;;;;10423116;28;20221;-76
2021/05/29 17:30:43;;;;;;;0.93;0.93;;;21.60;23.40;;;;;;10430404;28;20827;-77
2021/05/29 17:35:46;;;;;;;0.60;0.60;;;21.70;23.30;;;;;;10432506;28;20220;-77
2021/05/29 17:40:50;;;;;;;0.80;0.80;;;21.70;23.10;;;;;;10426762;28;20229;-76
2021/05/29 17:45:53;;;;;;;0.90;0.90;;;21.70;22.90;;;;;;10429334;28;20229;-75
2021/05/29 17:50:56;;;;;;;0.70;0.70;;;21.70;23.00;;;;;;10426501;28;20229;-75
2021/05/29 17:56:00;;;;;;;0.80;0.80;;;21.70;23.00;;;;;;10419411;28;20598;-75
2021/05/29 18:01:07;;;;;;;1.73;1.63;;;21.70;23.20;;;;;;10423268;28;20732;-75
2021/05/29 18:06:10;;;;;;;25.73;20.37;;;21.60;23.30;;;;;;10429892;28;20229;-75
2021/05/29 18:11:14;;;;;;;6.83;5.10;;;21.50;23.40;;;;;;10427912;28;20244;-76
2021/05/29 18:16:19;;;;;;;5.53;3.20;;;21.50;23.50;;;;;;10428615;28;20251;-76
2021/05/29 18:21:22;;;;;;;2.90;1.87;;;21.40;24.00;;;;;;10431974;28;20320;-78
2021/05/29 18:26:26;;;;;;;1.60;1.50;;;21.30;24.10;;;;;;10432313;28;20451;-77
2021/05/29 18:31:29;;;;;;;1.10;1.10;;;21.30;24.00;;;;;;10426071;28;20235;-76
2021/05/29 18:36:36;;;;;;;6.17;5.57;;;21.20;23.90;;;;;;10428176;28;20221;-76
2021/05/29 18:41:39;;;;;;;3.60;3.30;;;21.10;24.10;;;;;;10423211;28;20239;-76
2021/05/29 18:46:42;;;;;;;1.50;1.40;;;20.90;23.80;;;;;;10422288;28;20220;-76
2021/05/29 18:51:45;;;;;;;1.00;1.00;;;20.80;23.70;;;;;;10420641;28;20217;-76
2021/05/29 18:56:49;;;;;;;0.90;0.90;;;20.70;23.70;;;;;;10428631;28;20229;-76
2021/05/29 19:07:15;;;;;;;2.13;1.10;;;20.50;23.80;;;;;;10425623;28;20311;-76
2021/05/29 19:12:18;;;;;;;0.90;0.90;;;20.30;23.80;;;;;;10423940;28;20233;-76
2021/05/29 19:17:21;;;;;;;1.00;1.00;;;20.20;23.90;;;;;;10419193;28;20282;-76
2021/05/29 19:22:29;;;;;;;0.93;0.90;;;20.10;24.00;;;;;;10422897;28;20233;-77
2021/05/29 19:43:57;;;;;;;1.40;1.30;;;19.70;25.10;;;;;;10426072;28;20740;-77
2021/05/29 20:26:38;;;;;;;4.50;4.10;;;18.70;25.30;;;;;;10421821;28;20871;-76
2021/05/29 20:31:42;;;;;;;3.20;3.00;;;18.60;25.40;;;;;;10416328;28;20225;-76
2021/05/29 20:36:45;;;;;;;2.40;2.20;;;18.50;25.70;;;;;;10422626;28;20217;-76
2021/05/29 20:41:50;;;;;;;2.63;1.87;;;18.40;25.60;;;;;;10409810;28;20243;-76
2021/05/29 20:46:56;;;;;;;2.17;1.97;;;18.30;25.80;;;;;;10419226;28;20293;-76
2021/05/29 20:51:59;;;;;;;1.80;1.70;;;18.20;25.80;;;;;;10419138;28;20711;-76
2021/05/29 20:57:02;;;;;;;1.50;1.40;;;18.10;25.90;;;;;;10416146;28;20214;-75
2021/05/29 21:02:06;;;;;;;1.70;1.60;;;18.00;25.90;;;;;;10421051;28;20229;-76
2021/05/29 21:07:10;;;;;;;1.67;1.57;;;17.80;26.00;;;;;;10417187;28;20233;-75
2021/05/29 21:12:14;;;;;;;1.43;1.33;;;17.70;26.10;;;;;;10421653;28;20238;-75
2021/05/29 21:22:40;;;;;;;1.30;1.20;;;17.50;26.30;;;;;;10414149;28;20399;-75
2021/05/29 21:27:44;;;;;;;1.43;1.37;;;17.40;26.20;;;;;;10407133;28;20769;-75
2021/05/29 21:32:48;;;;;;;1.70;1.60;;;17.20;26.40;;;;;;10408552;28;20244;-75
2021/05/29 21:37:51;;;;;;;3.53;3.33;;;17.10;26.60;;;;;;10411646;28;20420;-75
2021/05/29 21:42:53;;;;;;;3.70;3.40;;;17.00;26.50;;;;;;10416032;28;20225;-75
2021/05/29 21:53:18;;;;;;;3.00;2.80;;;16.80;26.80;;;;;;10416513;28;20225;-75
2021/05/29 21:58:20;;;;;;;2.40;2.20;;;16.70;26.70;;;;;;10415240;28;20226;-75
2021/05/29 22:03:25;;;;;;;2.77;2.57;;;16.70;26.80;;;;;;10421226;28;20244;-75
2021/05/29 22:08:28;;;;;;;2.93;2.30;;;16.60;27.10;;;;;;10417815;28;20240;-75
2021/05/29 22:13:35;;;;;;;2.40;2.20;;;16.50;26.90;;;;;;10419877;28;20693;-75
2021/05/29 22:18:48;;;;;;;2.50;2.33;;;16.50;27.00;;;;;;10421830;28;20323;-75
2021/05/29 22:29:19;;;;;;;2.97;2.40;;;16.40;27.10;;;;;;10424208;28;20236;-75
2021/05/29 22:34:25;;;;;;;3.37;3.07;;;16.20;27.00;;;;;;10419090;28;20221;-74
2021/05/29 22:39:28;;;;;;;5.10;4.57;;;16.10;27.20;;;;;;10421353;28;20232;-74
2021/05/29 22:44:31;;;;;;;4.10;3.70;;;16.00;27.30;;;;;;10430939;28;20245;-74
2021/05/29 22:49:35;;;;;;;4.03;3.60;;;15.90;27.30;;;;;;10424999;28;20216;-75
2021/05/29 22:54:38;;;;;;;3.57;3.27;;;15.80;27.50;;;;;;10425055;28;23501;-74
2021/05/29 22:59:41;;;;;;;4.00;3.40;;;15.70;27.40;;;;;;10424182;28;20662;-74
2021/05/29 23:04:45;;;;;;;4.27;3.87;;;15.60;27.50;;;;;;10421578;28;20230;-74
2021/05/29 23:09:47;;;;;;;4.70;3.47;;;15.40;27.50;;;;;;10420734;28;20589;-74
2021/05/29 23:14:50;;;;;;;4.30;3.90;;;15.30;27.50;;;;;;10424382;28;20221;-74
2021/05/29 23:19:54;;;;;;;4.27;3.80;;;15.10;27.70;;;;;;10425910;28;20218;-74
2021/05/29 23:24:56;;;;;;;4.40;3.70;;;14.90;28.00;;;;;;10426926;28;20221;-74
2021/05/29 23:29:59;;;;;;;3.90;3.13;;;14.80;28.10;;;;;;10421612;28;20224;-74
2021/05/29 23:35:03;;;;;;;3.30;3.00;;;14.70;28.20;;;;;;10424531;28;20213;-74
2021/05/29 23:40:07;;;;;;;2.97;2.70;;;14.70;28.50;;;;;;10422888;28;20233;-74
2021/05/29 23:45:11;;;;;;;3.33;2.53;;;14.60;28.40;;;;;;10417274;28;20729;-74
2021/05/29 23:50:15;;;;;;;3.07;2.77;;;14.60;28.50;;;;;;10420969;28;20608;-74
2021/05/29 23:55:18;;;;;;;3.30;3.00;;;14.50;28.60;;;;;;10424759;28;20221;-74
